createdAt,value
2023-04-29T00:00:52.000Z,0
2023-04-29T00:01:52.000Z,0
2023-04-29T00:02:53.000Z,0
2023-04-29T00:03:53.000Z,0
2023-04-29T00:04:54.000Z,0
2023-04-29T00:05:55.000Z,0
2023-04-29T00:06:55.000Z,0
2023-04-29T00:07:56.000Z,0
2023-04-29T00:08:57.000Z,0
2023-04-29T00:09:57.000Z,0
2023-04-29T00:10:58.000Z,0
2023-04-29T00:11:58.000Z,0
2023-04-29T00:12:59.000Z,0
2023-04-29T00:14:00.000Z,0
2023-04-29T00:15:00.000Z,0
2023-04-29T00:16:01.000Z,0
2023-04-29T00:17:02.000Z,0
2023-04-29T00:18:02.000Z,0
2023-04-29T00:19:03.000Z,0
2023-04-29T00:20:03.000Z,0
2023-04-29T00:21:04.000Z,0
2023-04-29T00:22:05.000Z,0
2023-04-29T00:23:05.000Z,0
2023-04-29T00:24:06.000Z,0
2023-04-29T00:25:07.000Z,0
2023-04-29T00:26:07.000Z,0
2023-04-29T00:27:08.000Z,0
2023-04-29T00:28:08.000Z,0
2023-04-29T00:29:09.000Z,0
2023-04-29T00:30:10.000Z,0
2023-04-29T00:31:10.000Z,0
2023-04-29T00:32:11.000Z,0
2023-04-29T00:33:12.000Z,0
2023-04-29T00:34:12.000Z,0
2023-04-29T00:35:13.000Z,0
2023-04-29T00:36:13.000Z,0
2023-04-29T00:37:14.000Z,0
2023-04-29T00:38:15.000Z,0
2023-04-29T00:39:15.000Z,0
2023-04-29T00:40:16.000Z,0
2023-04-29T00:41:17.000Z,0
2023-04-29T00:42:17.000Z,0
2023-04-29T00:43:18.000Z,0
2023-04-29T00:44:18.000Z,0
2023-04-29T00:45:19.000Z,0
2023-04-29T00:46:20.000Z,0
2023-04-29T00:47:20.000Z,0
2023-04-29T00:48:21.000Z,0
2023-04-29T00:49:22.000Z,0
2023-04-29T00:50:22.000Z,0
2023-04-29T00:51:23.000Z,0
2023-04-29T00:52:23.000Z,0
2023-04-29T00:53:24.000Z,0
2023-04-29T00:54:25.000Z,0
2023-04-29T00:55:25.000Z,0
2023-04-29T00:56:26.000Z,0
2023-04-29T00:57:27.000Z,0
2023-04-29T00:58:27.000Z,0
2023-04-29T00:59:28.000Z,0
2023-04-29T01:00:28.000Z,0
2023-04-29T01:01:29.000Z,0
2023-04-29T01:02:30.000Z,0
2023-04-29T01:03:30.000Z,0
2023-04-29T01:04:31.000Z,0
2023-04-29T01:05:32.000Z,0
2023-04-29T01:06:32.000Z,0
2023-04-29T01:07:33.000Z,0
2023-04-29T01:08:34.000Z,0
2023-04-29T01:09:34.000Z,0
2023-04-29T01:10:35.000Z,0
2023-04-29T01:11:35.000Z,0
2023-04-29T01:12:36.000Z,0
2023-04-29T01:13:37.000Z,0
2023-04-29T01:14:37.000Z,0
2023-04-29T01:15:38.000Z,0
2023-04-29T01:16:39.000Z,0
2023-04-29T01:17:39.000Z,0
2023-04-29T01:18:40.000Z,0
2023-04-29T01:19:40.000Z,0
2023-04-29T01:20:41.000Z,0
2023-04-29T01:21:42.000Z,0
2023-04-29T01:22:42.000Z,0
2023-04-29T01:23:43.000Z,0
2023-04-29T01:24:43.000Z,0
2023-04-29T01:25:44.000Z,0
2023-04-29T01:26:45.000Z,0
2023-04-29T01:27:45.000Z,0
2023-04-29T01:28:46.000Z,0
2023-04-29T01:29:46.000Z,0
2023-04-29T01:30:47.000Z,0
2023-04-29T01:31:48.000Z,0
2023-04-29T01:32:48.000Z,0
2023-04-29T01:33:49.000Z,0
2023-04-29T01:34:50.000Z,0
2023-04-29T01:35:50.000Z,0
2023-04-29T01:36:51.000Z,0
2023-04-29T01:37:51.000Z,0
2023-04-29T01:38:52.000Z,0
2023-04-29T01:39:53.000Z,0
2023-04-29T01:40:53.000Z,0
2023-04-29T01:41:54.000Z,0
2023-04-29T01:42:55.000Z,0
2023-04-29T01:43:55.000Z,0
2023-04-29T01:44:56.000Z,0
2023-04-29T01:45:56.000Z,0
2023-04-29T01:46:57.000Z,0
2023-04-29T01:47:58.000Z,0
2023-04-29T01:48:58.000Z,0
2023-04-29T01:49:59.000Z,0
2023-04-29T01:50:59.000Z,0
2023-04-29T01:52:00.000Z,0
2023-04-29T01:53:01.000Z,0
2023-04-29T01:54:01.000Z,0
2023-04-29T01:55:02.000Z,0
2023-04-29T01:56:03.000Z,0
2023-04-29T01:57:03.000Z,0
2023-04-29T01:58:04.000Z,0
2023-04-29T01:59:04.000Z,0
2023-04-29T02:00:05.000Z,0
2023-04-29T02:01:06.000Z,0
2023-04-29T02:02:06.000Z,0
2023-04-29T02:03:07.000Z,0
2023-04-29T02:04:08.000Z,0
2023-04-29T02:05:08.000Z,0
2023-04-29T02:06:09.000Z,0
2023-04-29T02:07:09.000Z,0
2023-04-29T02:08:10.000Z,0
2023-04-29T02:09:11.000Z,0
2023-04-29T02:10:11.000Z,0
2023-04-29T02:11:12.000Z,0
2023-04-29T02:12:13.000Z,0
2023-04-29T02:13:13.000Z,0
2023-04-29T02:14:14.000Z,0
2023-04-29T02:15:14.000Z,0
2023-04-29T02:16:15.000Z,0
2023-04-29T02:17:16.000Z,0
2023-04-29T02:18:16.000Z,0
2023-04-29T02:19:17.000Z,0
2023-04-29T02:20:18.000Z,0
2023-04-29T02:21:18.000Z,0
2023-04-29T02:22:19.000Z,0
2023-04-29T02:23:19.000Z,0
2023-04-29T02:24:20.000Z,0
2023-04-29T02:25:21.000Z,0
2023-04-29T02:26:21.000Z,0
2023-04-29T02:27:22.000Z,0
2023-04-29T02:28:23.000Z,0
2023-04-29T02:29:23.000Z,0
2023-04-29T02:30:24.000Z,0
2023-04-29T02:31:24.000Z,0
2023-04-29T02:32:25.000Z,0
2023-04-29T02:33:26.000Z,0
2023-04-29T02:34:26.000Z,0
2023-04-29T02:35:27.000Z,0
2023-04-29T02:36:28.000Z,0
2023-04-29T02:37:28.000Z,0
2023-04-29T02:38:29.000Z,0
2023-04-29T02:39:29.000Z,0
2023-04-29T02:40:30.000Z,0
2023-04-29T02:41:31.000Z,0
2023-04-29T02:42:31.000Z,0
2023-04-29T02:43:32.000Z,0
2023-04-29T02:44:33.000Z,0
2023-04-29T02:45:33.000Z,0
2023-04-29T02:46:34.000Z,0
2023-04-29T02:47:34.000Z,0
2023-04-29T02:48:35.000Z,0
2023-04-29T02:49:36.000Z,0
2023-04-29T02:50:36.000Z,0
2023-04-29T02:51:37.000Z,0
2023-04-29T02:52:38.000Z,0
2023-04-29T02:53:38.000Z,0
2023-04-29T02:54:39.000Z,0
2023-04-29T02:55:40.000Z,0
2023-04-29T02:56:40.000Z,0
2023-04-29T02:57:41.000Z,0
2023-04-29T02:58:41.000Z,0
2023-04-29T02:59:42.000Z,0
2023-04-29T03:00:43.000Z,0
2023-04-29T03:01:43.000Z,0
2023-04-29T03:02:44.000Z,0
2023-04-29T03:03:45.000Z,0
2023-04-29T03:04:45.000Z,0
2023-04-29T03:05:46.000Z,0
2023-04-29T03:06:46.000Z,0
2023-04-29T03:07:47.000Z,0
2023-04-29T03:08:48.000Z,0
2023-04-29T03:09:48.000Z,1
2023-04-29T03:10:49.000Z,1
2023-04-29T03:11:49.000Z,1
2023-04-29T03:12:50.000Z,1
2023-04-29T03:13:51.000Z,1
2023-04-29T03:14:51.000Z,2
2023-04-29T03:15:52.000Z,1
2023-04-29T03:16:53.000Z,2
2023-04-29T03:17:53.000Z,3
2023-04-29T03:18:54.000Z,3
2023-04-29T03:19:54.000Z,4
2023-04-29T03:20:55.000Z,6
2023-04-29T03:21:56.000Z,6
2023-04-29T03:22:56.000Z,7
2023-04-29T03:23:57.000Z,7
2023-04-29T03:24:58.000Z,9
2023-04-29T03:25:58.000Z,10
2023-04-29T03:26:59.000Z,13
2023-04-29T03:27:59.000Z,18
2023-04-29T03:29:00.000Z,23
2023-04-29T03:30:01.000Z,28
2023-04-29T03:31:01.000Z,35
2023-04-29T03:32:02.000Z,42
2023-04-29T03:33:02.000Z,50
2023-04-29T03:34:03.000Z,59
2023-04-29T03:35:04.000Z,70
2023-04-29T03:36:04.000Z,82
2023-04-29T03:37:05.000Z,100
2023-04-29T03:38:06.000Z,119
2023-04-29T03:39:06.000Z,136
2023-04-29T03:40:07.000Z,155
2023-04-29T03:41:08.000Z,175
2023-04-29T03:42:08.000Z,192
2023-04-29T03:43:09.000Z,210
2023-04-29T03:44:09.000Z,226
2023-04-29T03:45:10.000Z,241
2023-04-29T03:46:11.000Z,254
2023-04-29T03:47:11.000Z,260
2023-04-29T03:48:12.000Z,257
2023-04-29T03:49:12.000Z,244
2023-04-29T03:50:13.000Z,226
2023-04-29T03:51:14.000Z,218
2023-04-29T03:52:14.000Z,223
2023-04-29T03:53:15.000Z,241
2023-04-29T03:54:16.000Z,287
2023-04-29T03:55:16.000Z,338
2023-04-29T03:56:17.000Z,376
2023-04-29T03:57:17.000Z,387
2023-04-29T03:58:18.000Z,389
2023-04-29T03:59:19.000Z,406
2023-04-29T04:00:19.000Z,468
2023-04-29T04:01:20.000Z,542
2023-04-29T04:02:21.000Z,623
2023-04-29T04:03:21.000Z,697
2023-04-29T04:04:22.000Z,777
2023-04-29T04:05:22.000Z,844
2023-04-29T04:06:23.000Z,900
2023-04-29T04:07:24.000Z,959
2023-04-29T04:08:24.000Z,1008
2023-04-29T04:09:25.000Z,1063
2023-04-29T04:10:25.000Z,1133
2023-04-29T04:11:26.000Z,1200
2023-04-29T04:12:27.000Z,1262
2023-04-29T04:13:27.000Z,1286
2023-04-29T04:14:28.000Z,1255
2023-04-29T04:15:29.000Z,1212
2023-04-29T04:16:29.000Z,1173
2023-04-29T04:17:30.000Z,1178
2023-04-29T04:18:30.000Z,1127
2023-04-29T04:19:31.000Z,1028
2023-04-29T04:20:32.000Z,921
2023-04-29T04:21:32.000Z,826
2023-04-29T04:22:33.000Z,774
2023-04-29T04:23:34.000Z,789
2023-04-29T04:24:34.000Z,912
2023-04-29T04:25:35.000Z,1113
2023-04-29T04:26:35.000Z,1250
2023-04-29T04:27:36.000Z,1325
2023-04-29T04:28:37.000Z,1373
2023-04-29T04:29:37.000Z,1423
2023-04-29T04:30:38.000Z,1602
2023-04-29T04:31:38.000Z,1739
2023-04-29T04:32:39.000Z,1633
2023-04-29T04:33:40.000Z,1546
2023-04-29T04:34:40.000Z,1643
2023-04-29T04:35:41.000Z,1696
2023-04-29T04:36:42.000Z,1777
2023-04-29T04:37:42.000Z,2275
2023-04-29T04:38:43.000Z,2851
2023-04-29T04:39:43.000Z,2899
2023-04-29T04:40:44.000Z,2546
2023-04-29T04:41:45.000Z,2253
2023-04-29T04:42:45.000Z,2239
2023-04-29T04:43:46.000Z,2650
2023-04-29T04:44:46.000Z,3055
2023-04-29T04:45:47.000Z,3002
2023-04-29T04:46:48.000Z,2649
2023-04-29T04:47:48.000Z,2301
2023-04-29T04:48:49.000Z,2100
2023-04-29T04:49:50.000Z,1979
2023-04-29T04:50:50.000Z,1907
2023-04-29T04:51:51.000Z,1960
2023-04-29T04:52:52.000Z,2079
2023-04-29T04:53:52.000Z,2100
2023-04-29T04:54:53.000Z,2049
2023-04-29T04:55:53.000Z,2071
2023-04-29T04:56:54.000Z,2421
2023-04-29T04:57:55.000Z,3316
2023-04-29T04:58:55.000Z,4540
2023-04-29T04:59:56.000Z,5922
2023-04-29T05:00:57.000Z,7083
2023-04-29T05:01:57.000Z,7687
2023-04-29T05:02:58.000Z,7423
2023-04-29T05:03:59.000Z,6624
2023-04-29T05:04:59.000Z,6389
2023-04-29T05:06:00.000Z,5843
2023-04-29T05:07:00.000Z,5179
2023-04-29T05:08:01.000Z,4165
2023-04-29T05:09:02.000Z,3186
2023-04-29T05:10:02.000Z,2575
2023-04-29T05:11:03.000Z,2507
2023-04-29T05:12:04.000Z,2603
2023-04-29T05:13:04.000Z,2603
2023-04-29T05:14:05.000Z,2450
2023-04-29T05:15:05.000Z,2335
2023-04-29T05:16:06.000Z,2370
2023-04-29T05:17:07.000Z,2466
2023-04-29T05:18:07.000Z,2554
2023-04-29T05:19:08.000Z,2813
2023-04-29T05:20:09.000Z,3467
2023-04-29T05:21:09.000Z,4203
2023-04-29T05:22:10.000Z,4208
2023-04-29T05:23:10.000Z,3732
2023-04-29T05:24:11.000Z,4173
2023-04-29T05:25:12.000Z,3864
2023-04-29T05:26:12.000Z,3170
2023-04-29T05:27:13.000Z,3255
2023-04-29T05:28:14.000Z,3180
2023-04-29T05:29:14.000Z,3343
2023-04-29T05:30:15.000Z,3418
2023-04-29T05:31:15.000Z,3327
2023-04-29T05:32:16.000Z,2868
2023-04-29T05:33:17.000Z,2360
2023-04-29T05:34:17.000Z,2375
2023-04-29T05:35:18.000Z,3171
2023-04-29T05:36:19.000Z,4369
2023-04-29T05:37:19.000Z,5525
2023-04-29T05:38:20.000Z,6145
2023-04-29T05:39:21.000Z,6373
2023-04-29T05:40:21.000Z,6746
2023-04-29T05:41:22.000Z,7592
2023-04-29T05:42:23.000Z,9324
2023-04-29T05:43:23.000Z,11143
2023-04-29T05:44:24.000Z,12174
2023-04-29T05:45:24.000Z,12271
2023-04-29T05:46:25.000Z,11730
2023-04-29T05:47:26.000Z,11590
2023-04-29T05:48:26.000Z,11691
2023-04-29T05:49:27.000Z,11611
2023-04-29T05:50:28.000Z,11344
2023-04-29T05:51:28.000Z,11122
2023-04-29T05:52:29.000Z,10694
2023-04-29T05:53:29.000Z,10236
2023-04-29T05:54:30.000Z,9845
2023-04-29T05:55:31.000Z,8926
2023-04-29T05:56:31.000Z,7671
2023-04-29T05:57:32.000Z,6846
2023-04-29T05:58:32.000Z,6643
2023-04-29T05:59:33.000Z,6900
2023-04-29T06:00:34.000Z,7353
2023-04-29T06:01:34.000Z,8187
2023-04-29T06:02:35.000Z,9352
2023-04-29T06:03:36.000Z,10411
2023-04-29T06:04:36.000Z,11434
2023-04-29T06:05:37.000Z,12534
2023-04-29T06:06:37.000Z,13322
2023-04-29T06:07:38.000Z,13378
2023-04-29T06:08:39.000Z,13007
2023-04-29T06:09:39.000Z,13136
2023-04-29T06:10:40.000Z,13908
2023-04-29T06:11:41.000Z,14229
2023-04-29T06:12:41.000Z,14809
2023-04-29T06:13:42.000Z,14620
2023-04-29T06:14:42.000Z,12596
2023-04-29T06:15:43.000Z,10838
2023-04-29T06:16:44.000Z,9974
2023-04-29T06:17:44.000Z,9769
2023-04-29T06:18:45.000Z,10757
2023-04-29T06:19:46.000Z,12238
2023-04-29T06:20:46.000Z,13537
2023-04-29T06:21:47.000Z,14590
2023-04-29T06:22:47.000Z,15005
2023-04-29T06:23:48.000Z,12746
2023-04-29T06:24:49.000Z,12201
2023-04-29T06:25:50.000Z,12527
2023-04-29T06:26:50.000Z,12612
2023-04-29T06:27:51.000Z,12502
2023-04-29T06:28:51.000Z,12768
2023-04-29T06:29:52.000Z,12890
2023-04-29T06:30:53.000Z,13468
2023-04-29T06:31:53.000Z,14198
2023-04-29T06:32:54.000Z,14697
2023-04-29T06:33:55.000Z,15510
2023-04-29T06:34:55.000Z,16424
2023-04-29T06:35:56.000Z,17456
2023-04-29T06:36:56.000Z,17904
2023-04-29T06:37:57.000Z,17864
2023-04-29T06:38:58.000Z,17232
2023-04-29T06:39:58.000Z,15736
2023-04-29T06:40:59.000Z,15217
2023-04-29T06:42:00.000Z,15348
2023-04-29T06:43:00.000Z,13797
2023-04-29T06:44:01.000Z,11509
2023-04-29T06:45:02.000Z,11771
2023-04-29T06:46:02.000Z,10641
2023-04-29T06:47:03.000Z,9994
2023-04-29T06:48:03.000Z,10038
2023-04-29T06:49:04.000Z,8965
2023-04-29T06:50:05.000Z,10580
2023-04-29T06:51:05.000Z,12988
2023-04-29T06:52:06.000Z,13958
2023-04-29T06:53:07.000Z,15709
2023-04-29T06:54:07.000Z,21096
2023-04-29T06:55:08.000Z,25160
2023-04-29T06:56:08.000Z,18304
2023-04-29T06:57:09.000Z,13305
2023-04-29T06:58:10.000Z,19320
2023-04-29T06:59:10.000Z,21520
2023-04-29T07:00:11.000Z,22984
2023-04-29T07:01:12.000Z,20032
2023-04-29T07:02:12.000Z,15156
2023-04-29T07:03:13.000Z,16208
2023-04-29T07:04:13.000Z,20328
2023-04-29T07:05:14.000Z,24752
2023-04-29T07:06:15.000Z,24720
2023-04-29T07:07:15.000Z,24296
2023-04-29T07:08:16.000Z,26824
2023-04-29T07:09:17.000Z,21632
2023-04-29T07:10:17.000Z,17600
2023-04-29T07:11:18.000Z,18392
2023-04-29T07:12:18.000Z,20352
2023-04-29T07:13:19.000Z,18696
2023-04-29T07:14:20.000Z,20552
2023-04-29T07:15:20.000Z,21576
2023-04-29T07:16:21.000Z,22320
2023-04-29T07:17:22.000Z,26712
2023-04-29T07:18:22.000Z,25016
2023-04-29T07:19:23.000Z,25848
2023-04-29T07:20:24.000Z,25208
2023-04-29T07:21:24.000Z,25912
2023-04-29T07:22:25.000Z,27576
2023-04-29T07:23:25.000Z,23920
2023-04-29T07:24:26.000Z,24920
2023-04-29T07:25:27.000Z,24056
2023-04-29T07:26:27.000Z,27360
2023-04-29T07:27:28.000Z,31632
2023-04-29T07:28:29.000Z,30008
2023-04-29T07:29:29.000Z,27520
2023-04-29T07:30:30.000Z,26568
2023-04-29T07:31:31.000Z,25480
2023-04-29T07:32:31.000Z,25416
2023-04-29T07:33:32.000Z,24360
2023-04-29T07:34:32.000Z,24872
2023-04-29T07:35:33.000Z,22536
2023-04-29T07:36:34.000Z,22344
2023-04-29T07:37:34.000Z,22896
2023-04-29T07:38:35.000Z,22880
2023-04-29T07:39:36.000Z,21424
2023-04-29T07:40:36.000Z,21320
2023-04-29T07:41:37.000Z,24016
2023-04-29T07:42:38.000Z,27280
2023-04-29T07:43:38.000Z,29816
2023-04-29T07:44:39.000Z,29624
2023-04-29T07:45:40.000Z,28296
2023-04-29T07:46:40.000Z,25008
2023-04-29T07:47:41.000Z,22904
2023-04-29T07:48:41.000Z,20320
2023-04-29T07:49:42.000Z,17984
2023-04-29T07:50:43.000Z,14930
2023-04-29T07:51:43.000Z,9931
2023-04-29T07:52:44.000Z,6586
2023-04-29T07:53:45.000Z,7990
2023-04-29T07:54:45.000Z,7412
2023-04-29T07:55:46.000Z,6383
2023-04-29T07:56:47.000Z,9340
2023-04-29T07:57:47.000Z,13059
2023-04-29T07:58:48.000Z,14921
2023-04-29T07:59:48.000Z,14267
2023-04-29T08:00:49.000Z,11094
2023-04-29T08:01:50.000Z,9108
2023-04-29T08:02:50.000Z,7558
2023-04-29T08:03:51.000Z,6977
2023-04-29T08:04:52.000Z,6335
2023-04-29T08:05:52.000Z,5426
2023-04-29T08:06:53.000Z,6333
2023-04-29T08:07:53.000Z,7388
2023-04-29T08:08:54.000Z,11452
2023-04-29T08:09:55.000Z,15616
2023-04-29T08:10:55.000Z,11708
2023-04-29T08:11:56.000Z,6587
2023-04-29T08:12:57.000Z,5627
2023-04-29T08:13:57.000Z,6459
2023-04-29T08:14:58.000Z,7075
2023-04-29T08:15:58.000Z,7708
2023-04-29T08:16:59.000Z,8224
2023-04-29T08:18:00.000Z,9105
2023-04-29T08:19:00.000Z,9088
2023-04-29T08:20:01.000Z,6525
2023-04-29T08:21:02.000Z,6049
2023-04-29T08:22:02.000Z,5731
2023-04-29T08:23:03.000Z,5555
2023-04-29T08:24:03.000Z,6498
2023-04-29T08:25:04.000Z,7287
2023-04-29T08:26:05.000Z,8060
2023-04-29T08:27:05.000Z,8486
2023-04-29T08:28:06.000Z,9151
2023-04-29T08:29:07.000Z,9871
2023-04-29T08:30:07.000Z,9482
2023-04-29T08:31:08.000Z,9187
2023-04-29T08:32:08.000Z,9410
2023-04-29T08:33:09.000Z,10127
2023-04-29T08:34:10.000Z,10538
2023-04-29T08:35:10.000Z,10973
2023-04-29T08:36:11.000Z,11369
2023-04-29T08:37:12.000Z,11893
2023-04-29T08:38:12.000Z,12848
2023-04-29T08:39:13.000Z,14173
2023-04-29T08:40:13.000Z,15013
2023-04-29T08:41:14.000Z,15520
2023-04-29T08:42:15.000Z,15979
2023-04-29T08:43:15.000Z,16032
2023-04-29T08:44:16.000Z,15891
2023-04-29T08:45:17.000Z,16008
2023-04-29T08:46:17.000Z,16264
2023-04-29T08:47:18.000Z,16872
2023-04-29T08:48:19.000Z,17520
2023-04-29T08:49:19.000Z,17768
2023-04-29T08:50:20.000Z,16808
2023-04-29T08:51:20.000Z,15719
2023-04-29T08:52:21.000Z,15351
2023-04-29T08:53:22.000Z,11984
2023-04-29T08:54:22.000Z,11330
2023-04-29T08:55:23.000Z,13766
2023-04-29T08:56:24.000Z,15164
2023-04-29T08:57:24.000Z,12017
2023-04-29T08:58:25.000Z,11454
2023-04-29T08:59:26.000Z,9949
2023-04-29T09:00:26.000Z,12303
2023-04-29T09:01:27.000Z,14919
2023-04-29T09:02:27.000Z,14762
2023-04-29T09:03:28.000Z,15490
2023-04-29T09:04:29.000Z,13918
2023-04-29T09:05:29.000Z,14014
2023-04-29T09:06:30.000Z,17096
2023-04-29T09:07:31.000Z,22232
2023-04-29T09:08:31.000Z,29512
2023-04-29T09:09:32.000Z,34032
2023-04-29T09:10:33.000Z,32816
2023-04-29T09:11:33.000Z,34552
2023-04-29T09:12:34.000Z,35776
2023-04-29T09:13:34.000Z,35208
2023-04-29T09:14:35.000Z,34144
2023-04-29T09:15:36.000Z,32936
2023-04-29T09:16:36.000Z,31440
2023-04-29T09:17:37.000Z,30520
2023-04-29T09:18:38.000Z,31464
2023-04-29T09:19:38.000Z,33344
2023-04-29T09:20:39.000Z,33944
2023-04-29T09:21:39.000Z,34544
2023-04-29T09:22:40.000Z,35232
2023-04-29T09:23:41.000Z,35968
2023-04-29T09:24:41.000Z,37272
2023-04-29T09:25:42.000Z,37744
2023-04-29T09:26:43.000Z,39752
2023-04-29T09:27:43.000Z,40888
2023-04-29T09:28:44.000Z,41128
2023-04-29T09:29:44.000Z,41544
2023-04-29T09:30:45.000Z,41128
2023-04-29T09:31:46.000Z,41688
2023-04-29T09:32:46.000Z,41408
2023-04-29T09:33:47.000Z,40848
2023-04-29T09:34:48.000Z,40888
2023-04-29T09:35:48.000Z,41552
2023-04-29T09:36:49.000Z,43856
2023-04-29T09:37:49.000Z,46192
2023-04-29T09:38:50.000Z,47160
2023-04-29T09:39:51.000Z,47736
2023-04-29T09:40:51.000Z,45432
2023-04-29T09:41:52.000Z,45296
2023-04-29T09:42:53.000Z,46608
2023-04-29T09:43:53.000Z,43080
2023-04-29T09:44:54.000Z,38744
2023-04-29T09:45:55.000Z,40040
2023-04-29T09:46:55.000Z,38048
2023-04-29T09:47:56.000Z,30168
2023-04-29T09:48:56.000Z,25552
2023-04-29T09:49:57.000Z,23120
2023-04-29T09:50:58.000Z,22648
2023-04-29T09:51:58.000Z,26872
2023-04-29T09:52:59.000Z,32760
2023-04-29T09:54:00.000Z,34672
2023-04-29T09:55:00.000Z,36336
2023-04-29T09:56:01.000Z,42008
2023-04-29T09:57:02.000Z,45760
2023-04-29T09:58:02.000Z,49392
2023-04-29T09:59:03.000Z,54984
2023-04-29T10:00:04.000Z,46056
2023-04-29T10:01:04.000Z,35816
2023-04-29T10:02:05.000Z,39304
2023-04-29T10:03:05.000Z,41928
2023-04-29T10:04:06.000Z,44024
2023-04-29T10:05:07.000Z,37936
2023-04-29T10:06:07.000Z,41288
2023-04-29T10:07:08.000Z,49440
2023-04-29T10:08:09.000Z,61904
2023-04-29T10:09:09.000Z,65535
2023-04-29T10:10:10.000Z,59120
2023-04-29T10:11:20.000Z,65535
2023-04-29T10:12:21.000Z,55704
2023-04-29T10:13:22.000Z,51944
2023-04-29T10:14:22.000Z,35880
2023-04-29T10:15:23.000Z,26608
2023-04-29T10:16:24.000Z,26792
2023-04-29T10:17:24.000Z,26240
2023-04-29T10:18:25.000Z,24576
2023-04-29T10:19:26.000Z,28520
2023-04-29T10:20:26.000Z,32816
2023-04-29T10:21:27.000Z,41392
2023-04-29T10:22:27.000Z,52976
2023-04-29T10:23:28.000Z,55424
2023-04-29T10:24:29.000Z,51760
2023-04-29T10:25:29.000Z,35568
2023-04-29T10:26:30.000Z,29328
2023-04-29T10:27:31.000Z,26688
2023-04-29T10:28:31.000Z,21048
2023-04-29T10:29:32.000Z,20728
2023-04-29T10:30:33.000Z,26160
2023-04-29T10:31:33.000Z,22536
2023-04-29T10:32:34.000Z,27152
2023-04-29T10:33:34.000Z,25008
2023-04-29T10:34:35.000Z,21664
2023-04-29T10:35:36.000Z,20872
2023-04-29T10:36:36.000Z,24472
2023-04-29T10:37:37.000Z,26760
2023-04-29T10:38:43.000Z,21472
2023-04-29T10:39:43.000Z,21560
2023-04-29T10:40:44.000Z,21920
2023-04-29T10:41:49.000Z,20728
2023-04-29T10:43:01.000Z,21920
2023-04-29T10:44:07.000Z,22176
2023-04-29T10:45:07.000Z,17384
2023-04-29T10:46:13.000Z,12591
2023-04-29T10:47:14.000Z,10614
2023-04-29T10:48:14.000Z,11042
2023-04-29T10:49:15.000Z,11651
2023-04-29T10:50:16.000Z,10686
2023-04-29T10:51:16.000Z,11082
2023-04-29T10:52:17.000Z,12848
2023-04-29T10:53:17.000Z,12275
2023-04-29T10:54:18.000Z,12146
2023-04-29T10:55:19.000Z,11229
2023-04-29T10:56:19.000Z,10838
2023-04-29T10:57:20.000Z,13673
2023-04-29T10:58:21.000Z,16616
2023-04-29T10:59:21.000Z,20664
2023-04-29T11:00:22.000Z,26656
2023-04-29T11:01:23.000Z,28088
2023-04-29T11:02:23.000Z,30768
2023-04-29T11:03:24.000Z,34376
2023-04-29T11:04:24.000Z,37488
2023-04-29T11:05:25.000Z,39240
2023-04-29T11:06:26.000Z,39504
2023-04-29T11:07:26.000Z,31936
2023-04-29T11:08:27.000Z,20488
2023-04-29T11:09:28.000Z,16840
2023-04-29T11:10:28.000Z,13357
2023-04-29T11:11:29.000Z,12178
2023-04-29T11:12:30.000Z,14359
2023-04-29T11:13:30.000Z,17968
2023-04-29T11:14:31.000Z,18568
2023-04-29T11:15:32.000Z,15744
2023-04-29T11:16:32.000Z,16832
2023-04-29T11:17:33.000Z,20928
2023-04-29T11:18:34.000Z,18656
2023-04-29T11:19:34.000Z,14084
2023-04-29T11:20:35.000Z,12683
2023-04-29T11:21:35.000Z,11793
2023-04-29T11:22:36.000Z,11483
2023-04-29T11:23:37.000Z,10494
2023-04-29T11:24:37.000Z,10125
2023-04-29T11:25:38.000Z,11057
2023-04-29T11:26:39.000Z,11205
2023-04-29T11:27:39.000Z,11717
2023-04-29T11:28:40.000Z,12305
2023-04-29T11:29:41.000Z,12977
2023-04-29T11:30:41.000Z,12144
2023-04-29T11:31:42.000Z,10619
2023-04-29T11:32:42.000Z,10875
2023-04-29T11:33:43.000Z,11003
2023-04-29T11:34:49.000Z,12885
2023-04-29T11:35:49.000Z,14155
2023-04-29T11:36:50.000Z,15345
2023-04-29T11:37:51.000Z,16520
2023-04-29T11:38:51.000Z,20792
2023-04-29T11:39:52.000Z,21872
2023-04-29T11:40:52.000Z,21128
2023-04-29T11:41:53.000Z,22064
2023-04-29T11:42:54.000Z,22024
2023-04-29T11:43:54.000Z,29704
2023-04-29T11:44:55.000Z,40728
2023-04-29T11:45:56.000Z,58576
2023-04-29T11:46:56.000Z,65535
2023-04-29T11:47:57.000Z,47208
2023-04-29T11:48:57.000Z,33112
2023-04-29T11:49:58.000Z,25408
2023-04-29T11:50:59.000Z,23728
2023-04-29T11:51:59.000Z,23472
2023-04-29T11:53:00.000Z,19864
2023-04-29T11:54:01.000Z,18952
2023-04-29T11:55:06.000Z,17784
2023-04-29T11:56:07.000Z,15304
2023-04-29T11:57:08.000Z,17808
2023-04-29T11:58:08.000Z,20896
2023-04-29T11:59:09.000Z,19616
2023-04-29T12:00:09.000Z,19304
2023-04-29T12:01:10.000Z,20632
2023-04-29T12:02:11.000Z,23112
2023-04-29T12:03:11.000Z,25152
2023-04-29T12:04:12.000Z,21064
2023-04-29T12:05:13.000Z,21088
2023-04-29T12:06:13.000Z,22840
2023-04-29T12:07:14.000Z,22920
2023-04-29T12:08:14.000Z,24336
2023-04-29T12:09:15.000Z,23744
2023-04-29T12:10:16.000Z,22904
2023-04-29T12:11:16.000Z,24640
2023-04-29T12:12:17.000Z,27088
2023-04-29T12:13:18.000Z,24120
2023-04-29T12:14:18.000Z,19832
2023-04-29T12:15:19.000Z,18568
2023-04-29T12:16:20.000Z,17920
2023-04-29T12:17:20.000Z,20824
2023-04-29T12:18:21.000Z,19200
2023-04-29T12:19:21.000Z,16424
2023-04-29T12:20:22.000Z,16008
2023-04-29T12:21:23.000Z,14985
2023-04-29T12:22:23.000Z,12827
2023-04-29T12:23:24.000Z,11086
2023-04-29T12:24:25.000Z,10320
2023-04-29T12:25:25.000Z,10420
2023-04-29T12:26:26.000Z,10498
2023-04-29T12:27:27.000Z,13010
2023-04-29T12:28:27.000Z,16208
2023-04-29T12:29:28.000Z,19632
2023-04-29T12:30:29.000Z,21336
2023-04-29T12:31:29.000Z,24872
2023-04-29T12:32:30.000Z,28416
2023-04-29T12:33:30.000Z,33888
2023-04-29T12:34:31.000Z,37368
2023-04-29T12:35:32.000Z,38216
2023-04-29T12:36:32.000Z,39112
2023-04-29T12:37:33.000Z,38944
2023-04-29T12:38:34.000Z,38328
2023-04-29T12:39:34.000Z,37872
2023-04-29T12:40:35.000Z,37992
2023-04-29T12:41:36.000Z,38080
2023-04-29T12:42:36.000Z,37968
2023-04-29T12:43:37.000Z,37928
2023-04-29T12:44:37.000Z,36776
2023-04-29T12:45:38.000Z,34968
2023-04-29T12:46:39.000Z,34152
2023-04-29T12:47:39.000Z,35016
2023-04-29T12:48:40.000Z,30320
2023-04-29T12:49:41.000Z,27032
2023-04-29T12:50:41.000Z,30680
2023-04-29T12:51:42.000Z,29712
2023-04-29T12:52:42.000Z,33832
2023-04-29T12:53:43.000Z,33872
2023-04-29T12:54:44.000Z,30016
2023-04-29T12:55:44.000Z,26880
2023-04-29T12:56:45.000Z,26848
2023-04-29T12:57:45.000Z,27176
2023-04-29T12:58:46.000Z,31784
2023-04-29T12:59:47.000Z,31848
2023-04-29T13:00:47.000Z,27760
2023-04-29T13:01:48.000Z,27968
2023-04-29T13:02:49.000Z,31864
2023-04-29T13:03:49.000Z,33592
2023-04-29T13:04:50.000Z,35728
2023-04-29T13:05:50.000Z,37640
2023-04-29T13:06:51.000Z,39672
2023-04-29T13:07:52.000Z,38496
2023-04-29T13:08:52.000Z,37016
2023-04-29T13:09:53.000Z,36128
2023-04-29T13:10:54.000Z,35624
2023-04-29T13:11:54.000Z,35680
2023-04-29T13:12:55.000Z,36072
2023-04-29T13:13:56.000Z,36240
2023-04-29T13:14:56.000Z,34368
2023-04-29T13:15:57.000Z,35632
2023-04-29T13:16:57.000Z,35928
2023-04-29T13:17:58.000Z,32696
2023-04-29T13:18:59.000Z,30832
2023-04-29T13:19:59.000Z,34912
2023-04-29T13:21:00.000Z,37712
2023-04-29T13:22:01.000Z,37800
2023-04-29T13:23:01.000Z,39648
2023-04-29T13:24:02.000Z,38640
2023-04-29T13:25:03.000Z,35280
2023-04-29T13:26:03.000Z,34320
2023-04-29T13:27:04.000Z,36536
2023-04-29T13:28:04.000Z,39552
2023-04-29T13:29:05.000Z,39008
2023-04-29T13:30:06.000Z,39912
2023-04-29T13:31:06.000Z,41104
2023-04-29T13:32:07.000Z,41424
2023-04-29T13:33:08.000Z,39808
2023-04-29T13:34:08.000Z,39056
2023-04-29T13:35:09.000Z,39008
2023-04-29T13:36:09.000Z,38640